Time;durP1;ratioP1;P1;durP2;ratioP2;P2;SDS_P1;SDS_P2;PMS_P1;PMS_P2;Temp;Humidity;BMP_temperature;BMP_pressure;BME280_temperature;BME280_humidity;BME280_pressure;Samples;Min_cycle;Max_cycle;Signal;HPM_P1;HPM_P2
2022/12/11 00:00:04;;;;;;;9.82;4.35;;;;;;;;;;5050967;28;20029;-82
2022/12/11 00:02:30;;;;;;;9.52;4.53;;;;;;;;;;5052433;28;20025;-80
2022/12/11 00:04:56;;;;;;;6.93;3.83;;;;;;;;;;5052010;28;20036;-81
2022/12/11 00:07:22;;;;;;;7.68;3.97;;;;;;;;;;5052311;28;20052;-80
2022/12/11 00:09:48;;;;;;;9.98;4.15;;;;;;;;;;5052028;28;20029;-80
2022/12/11 00:12:14;;;;;;;10.52;3.92;;;;;;;;;;5052338;28;20036;-80
2022/12/11 00:14:40;;;;;;;8.15;4.32;;;;;;;;;;5052155;28;20033;-79
2022/12/11 00:17:06;;;;;;;11.48;4.40;;;;;;;;;;5052177;28;20037;-79
2022/12/11 00:19:32;;;;;;;10.57;3.80;;;;;;;;;;5052175;28;20025;-80
2022/12/11 00:21:58;;;;;;;8.57;3.78;;;;;;;;;;5051932;28;20061;-81
2022/12/11 00:24:24;;;;;;;7.20;3.63;;;;;;;;;;5052224;28;20471;-80
2022/12/11 00:26:51;;;;;;;6.30;3.25;;;;;;;;;;5050663;28;20090;-80
2022/12/11 00:29:17;;;;;;;8.18;2.90;;;;;;;;;;5052205;28;20472;-80
2022/12/11 00:31:43;;;;;;;6.03;2.85;;;;;;;;;;5052129;28;20100;-81
2022/12/11 00:34:10;;;;;;;8.05;3.10;;;;;;;;;;5052056;28;20036;-81
2022/12/11 00:36:37;;;;;;;7.50;3.42;;;;;;;;;;5052151;28;20029;-82
2022/12/11 00:39:03;;;;;;;6.65;3.17;;;;;;;;;;5051798;28;20029;-80
2022/12/11 00:41:30;;;;;;;7.65;3.10;;;;;;;;;;5052031;28;20037;-80
2022/12/11 00:43:56;;;;;;;6.32;2.85;;;;;;;;;;5051784;28;20056;-81
2022/12/11 00:46:22;;;;;;;7.40;3.00;;;;;;;;;;5051995;28;20084;-81
2022/12/11 00:48:49;;;;;;;9.30;2.95;;;;;;;;;;5051902;28;20025;-81
2022/12/11 00:51:15;;;;;;;7.78;2.47;;;;;;;;;;5051707;28;20048;-81
2022/12/11 00:53:41;;;;;;;7.15;2.65;;;;;;;;;;5051993;28;20465;-80
2022/12/11 00:56:11;;;;;;;6.82;2.47;;;;;;;;;;5051656;28;20470;-80
2022/12/11 00:58:37;;;;;;;5.80;2.10;;;;;;;;;;5052865;28;20033;-80
2022/12/11 01:01:08;;;;;;;5.57;2.03;;;;;;;;;;5055319;28;20033;-81
2022/12/11 01:03:34;;;;;;;4.57;1.98;;;;;;;;;;5055698;28;20025;-81
2022/12/11 01:06:00;;;;;;;5.07;2.00;;;;;;;;;;5055368;28;20032;-81
2022/12/11 01:08:26;;;;;;;3.03;1.75;;;;;;;;;;5055556;28;20483;-80
2022/12/11 01:11:00;;;;;;;4.30;1.50;;;;;;;;;;5055212;28;20032;-82
2022/12/11 01:13:26;;;;;;;5.32;2.10;;;;;;;;;;5051086;28;20044;-82
2022/12/11 01:15:52;;;;;;;3.53;1.65;;;;;;;;;;5055052;28;20115;-81
2022/12/11 01:18:18;;;;;;;2.83;1.17;;;;;;;;;;5055422;28;20490;-80
2022/12/11 01:20:44;;;;;;;2.22;0.90;;;;;;;;;;5055332;28;20033;-83
2022/12/11 01:23:11;;;;;;;3.47;0.80;;;;;;;;;;5055113;28;20029;-80
2022/12/11 01:25:38;;;;;;;4.18;0.80;;;;;;;;;;5055377;28;20064;-83
2022/12/11 01:28:04;;;;;;;1.50;0.60;;;;;;;;;;5054902;28;20028;-82
2022/12/11 01:30:30;;;;;;;2.20;0.60;;;;;;;;;;5055182;28;20053;-81
2022/12/11 01:32:56;;;;;;;2.13;0.40;;;;;;;;;;5054935;28;20047;-80
2022/12/11 01:35:22;;;;;;;1.77;0.47;;;;;;;;;;5055110;28;20021;-80
2022/12/11 01:37:48;;;;;;;1.65;0.40;;;;;;;;;;5054991;28;20029;-81
2022/12/11 01:40:15;;;;;;;0.63;0.20;;;;;;;;;;5054817;28;20102;-82
2022/12/11 01:42:42;;;;;;;0.40;0.25;;;;;;;;;;5054878;28;20024;-82
2022/12/11 01:45:26;;;;;;;2.30;0.30;;;;;;;;;;5054691;28;20036;-82
2022/12/11 01:48:14;;;;;;;2.28;0.40;;;;;;;;;;5054581;28;20062;-82
2022/12/11 01:50:58;;;;;;;1.77;0.60;;;;;;;;;;5054331;28;20495;-81
2022/12/11 01:53:24;;;;;;;;;;;;;;;;;;5054964;28;20676;-81
2022/12/11 01:55:53;;;;;;;2.08;0.60;;;;;;;;;;5054630;28;20451;-82
2022/12/11 01:58:20;;;;;;;0.98;0.40;;;;;;;;;;5054523;28;20021;-82
2022/12/11 02:00:46;;;;;;;2.50;0.77;;;;;;;;;;5054344;28;20044;-82
2022/12/11 02:03:12;;;;;;;1.20;0.50;;;;;;;;;;5054543;28;20064;-82
2022/12/11 02:05:39;;;;;;;0.93;0.40;;;;;;;;;;5054414;28;20108;-81
2022/12/11 02:08:07;;;;;;;2.83;0.70;;;;;;;;;;5054337;28;20032;-82
2022/12/11 02:10:56;;;;;;;3.17;0.35;;;;;;;;;;5053920;28;20090;-80
2022/12/11 02:13:31;;;;;;;1.30;0.35;;;;;;;;;;5046474;28;20090;-81
2022/12/11 02:16:06;;;;;;;0.70;0.20;;;;;;;;;;5052718;28;20399;-82
2022/12/11 02:18:32;;;;;;;;;;;;;;;;;;5054669;28;20032;-81
2022/12/11 02:21:04;;;;;;;1.48;0.60;;;;;;;;;;5053976;28;19919;-81
2022/12/11 02:23:48;;;;;;;1.95;0.40;;;;;;;;;;5054204;28;20471;-81
2022/12/11 02:26:14;;;;;;;;;;;;;;;;;;5054552;28;20039;-80
2022/12/11 02:28:48;;;;;;;1.70;0.70;;;;;;;;;;5053873;28;20373;-81
2022/12/11 02:31:14;;;;;;;2.58;0.70;;;;;;;;;;5052780;28;20061;-82
2022/12/11 02:33:48;;;;;;;1.70;0.40;;;;;;;;;;5053944;28;20029;-82
2022/12/11 02:36:14;;;;;;;2.10;0.52;;;;;;;;;;5053827;28;20495;-82
2022/12/11 02:38:42;;;;;;;0.88;0.32;;;;;;;;;;5053834;28;20068;-81
2022/12/11 02:41:09;;;;;;;1.95;0.65;;;;;;;;;;5053657;28;20033;-81
2022/12/11 02:43:36;;;;;;;1.52;0.57;;;;;;;;;;5052390;28;20112;-81
2022/12/11 02:46:03;;;;;;;4.88;0.70;;;;;;;;;;5053718;28;20075;-82
2022/12/11 02:48:30;;;;;;;2.63;0.93;;;;;;;;;;5053500;28;20090;-81
2022/12/11 02:50:57;;;;;;;1.55;0.63;;;;;;;;;;5053430;28;20053;-80
2022/12/11 02:53:25;;;;;;;2.42;0.52;;;;;;;;;;5053384;28;20040;-82
2022/12/11 02:55:55;;;;;;;2.47;0.50;;;;;;;;;;5053464;28;20036;-81
2022/12/11 02:58:24;;;;;;;6.28;1.20;;;;;;;;;;5053282;28;20028;-81
2022/12/11 03:00:50;;;;;;;2.28;0.77;;;;;;;;;;5053436;28;20123;-81
2022/12/11 03:03:16;;;;;;;2.30;0.43;;;;;;;;;;5053283;28;20533;-81
2022/12/11 03:05:42;;;;;;;2.92;0.60;;;;;;;;;;5053406;28;20024;-82
2022/12/11 03:08:08;;;;;;;2.33;1.02;;;;;;;;;;5053146;28;20056;-81
2022/12/11 03:10:34;;;;;;;2.65;0.95;;;;;;;;;;5053088;28;20376;-81
2022/12/11 03:13:01;;;;;;;4.50;1.00;;;;;;;;;;5053396;28;20029;-82
2022/12/11 03:15:48;;;;;;;2.50;0.90;;;;;;;;;;5052996;28;20025;-82
2022/12/11 03:18:21;;;;;;;5.20;0.98;;;;;;;;;;5041516;28;20475;-81
2022/12/11 03:20:53;;;;;;;4.20;1.63;;;;;;;;;;5052536;28;20033;-82
2022/12/11 03:23:22;;;;;;;4.45;1.45;;;;;;;;;;5052918;28;20430;-82
2022/12/11 03:26:07;;;;;;;3.50;1.30;;;;;;;;;;5053067;28;20063;-82
2022/12/11 03:28:33;;;;;;;4.07;1.02;;;;;;;;;;5052860;28;20025;-82
2022/12/11 03:31:03;;;;;;;3.20;0.98;;;;;;;;;;5052629;28;20029;-81
2022/12/11 03:33:37;;;;;;;3.42;1.90;;;;;;;;;;5052780;28;20025;-81
2022/12/11 03:36:06;;;;;;;4.78;1.17;;;;;;;;;;5052829;28;20040;-81
2022/12/11 03:38:36;;;;;;;2.40;0.77;;;;;;;;;;5052520;28;20033;-81
2022/12/11 03:41:03;;;;;;;3.47;1.23;;;;;;;;;;5052624;28;20443;-82
2022/12/11 03:43:30;;;;;;;4.05;0.85;;;;;;;;;;5052576;28;20463;-82
2022/12/11 03:45:57;;;;;;;2.25;0.90;;;;;;;;;;5052744;28;20036;-81
2022/12/11 03:48:25;;;;;;;1.88;0.50;;;;;;;;;;5052508;28;20400;-81
2022/12/11 03:50:51;;;;;;;2.92;0.90;;;;;;;;;;5052330;28;20064;-80
2022/12/11 03:53:18;;;;;;;4.90;1.50;;;;;;;;;;5052446;28;20078;-81
2022/12/11 03:55:44;;;;;;;6.55;1.90;;;;;;;;;;5052260;28;20399;-81
2022/12/11 03:58:10;;;;;;;8.65;1.98;;;;;;;;;;5052356;28;20031;-81
2022/12/11 04:00:36;;;;;;;6.20;2.00;;;;;;;;;;5052190;28;20388;-81
2022/12/11 04:05:47;;;;;;;;;;;;;;;;;;5052904;28;20039;-82
2022/12/11 04:08:13;;;;;;;7.20;2.33;;;;;;;;;;5052189;28;19991;-81
2022/12/11 04:10:40;;;;;;;6.90;2.20;;;;;;;;;;5052286;28;20033;-80
2022/12/11 04:13:06;;;;;;;5.00;2.20;;;;;;;;;;5052476;28;20031;-81
2022/12/11 04:15:32;;;;;;;9.90;2.53;;;;;;;;;;5051950;28;20037;-81
2022/12/11 04:26:14;;;;;;;4.40;2.50;;;;;;;;;;5052191;28;19915;-81
2022/12/11 04:28:41;;;;;;;7.05;2.70;;;;;;;;;;5051976;28;20104;-81
2022/12/11 04:31:11;;;;;;;13.98;6.97;;;;;;;;;;5052134;28;20029;-81
2022/12/11 04:33:37;;;;;;;16.80;8.85;;;;;;;;;;5054541;28;20025;-81
2022/12/11 04:36:03;;;;;;;11.93;4.72;;;;;;;;;;5056081;28;20083;-81
2022/12/11 04:38:29;;;;;;;8.80;4.90;;;;;;;;;;5056149;28;20029;-81
2022/12/11 04:41:05;;;;;;;8.05;3.10;;;;;;;;;;5055412;28;20561;-81
2022/12/11 04:43:31;;;;;;;10.52;3.50;;;;;;;;;;5055798;28;20078;-81
2022/12/11 04:46:01;;;;;;;8.52;3.72;;;;;;;;;;5055988;28;20111;-82
2022/12/11 04:48:27;;;;;;;8.52;4.13;;;;;;;;;;5071223;28;20029;-81
2022/12/11 04:50:54;;;;;;;8.70;3.90;;;;;;;;;;5055709;28;20137;-82
2022/12/11 04:53:20;;;;;;;8.10;3.33;;;;;;;;;;5054515;28;20025;-81
2022/12/11 04:55:46;;;;;;;8.48;4.13;;;;;;;;;;5054780;28;20082;-81
2022/12/11 04:58:12;;;;;;;9.35;4.18;;;;;;;;;;5055449;28;20025;-81
2022/12/11 05:00:39;;;;;;;14.02;5.18;;;;;;;;;;5055414;28;20048;-81
2022/12/11 05:03:06;;;;;;;25.95;15.77;;;;;;;;;;5055617;28;20596;-82
2022/12/11 05:05:32;;;;;;;24.95;16.98;;;;;;;;;;5055566;28;20032;-82
2022/12/11 05:07:58;;;;;;;13.02;5.82;;;;;;;;;;5055203;28;20447;-81
2022/12/11 05:10:24;;;;;;;8.95;3.83;;;;;;;;;;5055480;28;20036;-82
2022/12/11 05:12:50;;;;;;;8.57;3.22;;;;;;;;;;5054923;28;20063;-81
2022/12/11 05:15:16;;;;;;;6.55;2.50;;;;;;;;;;5055314;28;20036;-81
2022/12/11 05:17:42;;;;;;;9.70;3.03;;;;;;;;;;5055354;28;20048;-81
2022/12/11 05:20:09;;;;;;;3.55;1.98;;;;;;;;;;5055260;28;20040;-82
2022/12/11 05:22:35;;;;;;;5.05;2.58;;;;;;;;;;5055156;28;20021;-81
2022/12/11 05:25:01;;;;;;;6.57;2.40;;;;;;;;;;5055197;28;20025;-81
2022/12/11 05:27:28;;;;;;;18.63;13.23;;;;;;;;;;5055171;28;20021;-81
2022/12/11 05:29:54;;;;;;;9.18;5.72;;;;;;;;;;5054943;28;20361;-82
2022/12/11 05:32:20;;;;;;;10.98;6.65;;;;;;;;;;5055059;28;20028;-82
2022/12/11 05:34:46;;;;;;;10.52;4.53;;;;;;;;;;5055006;28;20029;-81
2022/12/11 05:37:12;;;;;;;8.40;4.75;;;;;;;;;;5055023;28;20479;-81
2022/12/11 05:39:38;;;;;;;7.38;4.35;;;;;;;;;;5055046;28;20079;-82
2022/12/11 05:42:04;;;;;;;12.20;4.15;;;;;;;;;;5054752;28;20112;-81
2022/12/11 05:44:31;;;;;;;6.97;3.20;;;;;;;;;;5054000;28;20418;-81
2022/12/11 05:46:57;;;;;;;9.13;4.07;;;;;;;;;;5054722;28;20032;-81
2022/12/11 05:49:23;;;;;;;9.57;3.60;;;;;;;;;;5054731;28;20040;-81
2022/12/11 05:51:49;;;;;;;7.50;3.50;;;;;;;;;;5054477;28;20418;-81
2022/12/11 05:54:16;;;;;;;8.52;3.00;;;;;;;;;;5054619;28;20040;-81
2022/12/11 05:56:42;;;;;;;10.18;3.72;;;;;;;;;;5054726;28;20491;-82
2022/12/11 05:59:08;;;;;;;6.80;2.92;;;;;;;;;;5054402;28;20110;-82
2022/12/11 06:01:40;;;;;;;7.32;3.33;;;;;;;;;;5054465;28;20041;-82
2022/12/11 06:04:06;;;;;;;13.02;3.60;;;;;;;;;;5054461;28;20029;-82
2022/12/11 06:06:33;;;;;;;10.23;3.80;;;;;;;;;;5054385;28;20094;-81
2022/12/11 06:08:59;;;;;;;9.02;3.50;;;;;;;;;;5054213;28;20025;-82
2022/12/11 06:11:27;;;;;;;10.10;3.63;;;;;;;;;;5054239;28;20037;-83
2022/12/11 06:13:53;;;;;;;13.95;3.92;;;;;;;;;;5054015;28;20040;-81
2022/12/11 06:16:20;;;;;;;12.98;8.48;;;;;;;;;;5054163;28;20544;-81
2022/12/11 06:18:46;;;;;;;20.27;11.07;;;;;;;;;;5054206;28;20044;-81
2022/12/11 06:21:13;;;;;;;14.57;6.22;;;;;;;;;;5053985;28;20029;-81
2022/12/11 06:23:42;;;;;;;12.50;4.50;;;;;;;;;;5052642;28;20024;-82
2022/12/11 06:26:09;;;;;;;14.75;7.93;;;;;;;;;;5052021;28;20048;-82
2022/12/11 06:28:36;;;;;;;27.25;15.95;;;;;;;;;;5052657;28;20037;-80
2022/12/11 06:31:02;;;;;;;14.43;7.25;;;;;;;;;;5053879;28;20032;-82
2022/12/11 06:33:28;;;;;;;12.95;4.93;;;;;;;;;;5052643;28;20059;-81
2022/12/11 06:35:54;;;;;;;17.67;10.05;;;;;;;;;;5053617;28;20396;-81
2022/12/11 06:38:20;;;;;;;16.90;11.30;;;;;;;;;;5053665;28;20025;-81
2022/12/11 06:40:53;;;;;;;17.20;9.55;;;;;;;;;;5053584;28;20106;-81
2022/12/11 06:43:19;;;;;;;12.68;4.95;;;;;;;;;;5053712;28;20504;-81
2022/12/11 06:45:45;;;;;;;15.73;7.43;;;;;;;;;;5053467;28;20036;-81
2022/12/11 06:48:11;;;;;;;34.85;21.27;;;;;;;;;;5053459;28;20032;-80
2022/12/11 06:50:38;;;;;;;23.10;13.27;;;;;;;;;;5053481;28;20045;-81
2022/12/11 06:53:04;;;;;;;13.90;5.65;;;;;;;;;;5053402;28;20029;-80
2022/12/11 06:55:30;;;;;;;13.63;6.93;;;;;;;;;;5053350;28;20047;-80
2022/12/11 06:57:56;;;;;;;13.88;4.80;;;;;;;;;;5053225;28;20029;-81
2022/12/11 07:00:22;;;;;;;11.50;5.35;;;;;;;;;;5053274;28;20111;-81
2022/12/11 07:15:43;;;;;;;9.80;4.00;;;;;;;;;;5103081;27;1406193;-78
2022/12/11 07:18:09;;;;;;;10.07;3.85;;;;;;;;;;5151180;27;20037;-81
2022/12/11 07:20:35;;;;;;;11.95;4.72;;;;;;;;;;5151332;27;20015;-78
2022/12/11 07:23:01;;;;;;;9.43;3.97;;;;;;;;;;5151141;27;20399;-78
2022/12/11 07:25:27;;;;;;;20.20;10.63;;;;;;;;;;5151734;27;20034;-82
2022/12/11 07:27:53;;;;;;;17.38;10.50;;;;;;;;;;5151527;27;20027;-81
2022/12/11 07:30:20;;;;;;;16.40;8.77;;;;;;;;;;5150767;27;20113;-80
2022/12/11 07:32:46;;;;;;;13.38;10.40;;;;;;;;;;5151144;27;20062;-78
2022/12/11 07:35:12;;;;;;;11.40;6.50;;;;;;;;;;5132267;27;20019;-77
2022/12/11 07:37:39;;;;;;;9.77;4.47;;;;;;;;;;5151137;27;20097;-81
2022/12/11 07:40:06;;;;;;;11.52;4.25;;;;;;;;;;5151315;27;20023;-81
2022/12/11 07:42:32;;;;;;;9.32;4.90;;;;;;;;;;5150887;27;20027;-81
2022/12/11 07:44:58;;;;;;;9.73;4.20;;;;;;;;;;5150775;27;20042;-78
2022/12/11 07:47:25;;;;;;;11.68;6.32;;;;;;;;;;5150443;27;20499;-79
2022/12/11 07:49:51;;;;;;;87.15;72.78;;;;;;;;;;5150635;27;20034;-79
2022/12/11 07:52:17;;;;;;;23.45;13.95;;;;;;;;;;5150134;27;20019;-78
2022/12/11 07:54:43;;;;;;;13.80;7.32;;;;;;;;;;5150662;27;20023;-78
2022/12/11 07:57:09;;;;;;;15.10;6.72;;;;;;;;;;5150639;27;20045;-78
2022/12/11 07:59:35;;;;;;;17.38;7.60;;;;;;;;;;5131977;27;20055;-80
2022/12/11 08:02:01;;;;;;;13.27;5.93;;;;;;;;;;5150346;27;20019;-81
2022/12/11 08:04:27;;;;;;;17.05;7.53;;;;;;;;;;5150213;27;20055;-81
2022/12/11 08:06:53;;;;;;;12.57;6.82;;;;;;;;;;5150398;27;20086;-80
2022/12/11 08:09:21;;;;;;;12.25;6.45;;;;;;;;;;5150105;27;20026;-79
2022/12/11 08:11:50;;;;;;;11.52;6.05;;;;;;;;;;5150168;27;20027;-80
2022/12/11 08:14:17;;;;;;;9.95;5.57;;;;;;;;;;5149748;27;20047;-77
2022/12/11 08:16:43;;;;;;;10.40;5.78;;;;;;;;;;5135966;27;20114;-77
2022/12/11 08:19:13;;;;;;;9.07;5.18;;;;;;;;;;5117805;27;20019;-79
2022/12/11 08:21:40;;;;;;;9.60;5.10;;;;;;;;;;5135974;27;20022;-81
2022/12/11 08:24:06;;;;;;;9.10;4.80;;;;;;;;;;5136009;27;20035;-79
2022/12/11 08:26:32;;;;;;;9.23;4.13;;;;;;;;;;5135925;27;20024;-81
2022/12/11 08:28:59;;;;;;;17.00;12.70;;;;;;;;;;5136045;27;20041;-80
2022/12/11 08:31:26;;;;;;;24.60;12.18;;;;;;;;;;5135675;27;20481;-78
2022/12/11 08:33:52;;;;;;;34.42;24.65;;;;;;;;;;5136026;27;20044;-80
2022/12/11 08:36:20;;;;;;;25.15;15.15;;;;;;;;;;5135964;27;20038;-78
2022/12/11 08:38:46;;;;;;;12.73;6.30;;;;;;;;;;5117408;27;20069;-80
2022/12/11 08:41:12;;;;;;;10.60;5.88;;;;;;;;;;5135975;27;20019;-81
2022/12/11 08:43:39;;;;;;;16.45;9.57;;;;;;;;;;5135559;27;20023;-80
2022/12/11 08:46:06;;;;;;;50.30;32.80;;;;;;;;;;5135578;27;20035;-78
2022/12/11 08:48:32;;;;;;;23.00;16.00;;;;;;;;;;5135576;27;20076;-80
2022/12/11 08:51:00;;;;;;;14.50;5.40;;;;;;;;;;5135732;27;20030;-78
2022/12/11 08:53:27;;;;;;;33.03;22.73;;;;;;;;;;5135453;27;20465;-79
2022/12/11 08:55:53;;;;;;;85.28;53.03;;;;;;;;;;5135558;27;20512;-79
2022/12/11 08:58:19;;;;;;;51.15;36.60;;;;;;;;;;5135733;27;20023;-77
2022/12/11 09:00:45;;;;;;;44.00;33.00;;;;;;;;;;5135229;27;20079;-80
2022/12/11 09:03:11;;;;;;;22.52;14.77;;;;;;;;;;5135326;27;20027;-85
2022/12/11 09:05:37;;;;;;;16.80;7.55;;;;;;;;;;5134890;27;20484;-79
2022/12/11 09:08:03;;;;;;;10.57;7.03;;;;;;;;;;5135308;27;20496;-80
2022/12/11 09:10:30;;;;;;;16.63;8.23;;;;;;;;;;5134999;27;20023;-81
2022/12/11 09:12:56;;;;;;;7.88;4.53;;;;;;;;;;5134914;27;20027;-81
2022/12/11 09:15:22;;;;;;;8.80;4.97;;;;;;;;;;5116401;27;20062;-80
2022/12/11 09:17:48;;;;;;;7.70;4.40;;;;;;;;;;5134770;27;20027;-81
2022/12/11 09:20:15;;;;;;;7.35;4.47;;;;;;;;;;5135075;27;20405;-78
2022/12/11 09:22:41;;;;;;;10.00;4.60;;;;;;;;;;5134582;27;20019;-81
2022/12/11 09:25:08;;;;;;;8.82;3.20;;;;;;;;;;5134822;27;20091;-78
2022/12/11 09:27:34;;;;;;;6.03;3.47;;;;;;;;;;5133573;27;20042;-80
2022/12/11 09:30:00;;;;;;;10.10;3.25;;;;;;;;;;5134818;27;20030;-79
2022/12/11 09:32:26;;;;;;;6.85;3.20;;;;;;;;;;5134711;27;20041;-78
2022/12/11 09:34:52;;;;;;;6.60;2.80;;;;;;;;;;5134774;27;20393;-81
2022/12/11 09:37:19;;;;;;;18.60;15.63;;;;;;;;;;5134701;27;20019;-78
2022/12/11 09:39:45;;;;;;;61.70;51.25;;;;;;;;;;5134331;27;20031;-81
2022/12/11 09:42:29;;;;;;;54.90;48.03;;;;;;;;;;5134574;27;20037;-80
2022/12/11 09:44:57;;;;;;;25.40;20.30;;;;;;;;;;5134365;27;20471;-79
2022/12/11 09:47:26;;;;;;;12.65;10.00;;;;;;;;;;5134245;27;20111;-79
2022/12/11 09:50:04;;;;;;;8.23;5.65;;;;;;;;;;5134153;27;20027;-82
2022/12/11 09:52:39;;;;;;;8.85;4.55;;;;;;;;;;5115602;27;20027;-77
2022/12/11 09:55:24;;;;;;;8.00;4.28;;;;;;;;;;5134098;27;20042;-81
2022/12/11 09:58:13;;;;;;;7.85;3.50;;;;;;;;;;5133799;27;20023;-81
2022/12/11 10:00:45;;;;;;;6.03;3.35;;;;;;;;;;5125732;27;20449;-80
2022/12/11 10:03:26;;;;;;;5.85;3.40;;;;;;;;;;5134101;27;20033;-81
2022/12/11 10:06:11;;;;;;;8.02;2.70;;;;;;;;;;5134203;27;20098;-81
2022/12/11 10:08:55;;;;;;;7.72;3.22;;;;;;;;;;5134625;27;20388;-81
2022/12/11 10:11:27;;;;;;;6.03;3.42;;;;;;;;;;5136457;27;20083;-81
2022/12/11 10:13:57;;;;;;;6.18;3.35;;;;;;;;;;5133790;27;20438;-81
2022/12/11 10:16:42;;;;;;;34.47;27.40;;;;;;;;;;5134034;27;20042;-79
2022/12/11 10:19:23;;;;;;;22.33;17.40;;;;;;;;;;5115586;27;20027;-78
2022/12/11 10:21:50;;;;;;;10.10;5.82;;;;;;;;;;5133894;27;20030;-77
2022/12/11 10:24:31;;;;;;;7.50;4.38;;;;;;;;;;5133549;27;20091;-78
2022/12/11 10:26:59;;;;;;;9.35;3.72;;;;;;;;;;5133693;27;20389;-78
2022/12/11 10:29:25;;;;;;;7.03;3.45;;;;;;;;;;5133525;27;20561;-80
2022/12/11 10:31:57;;;;;;;9.50;4.40;;;;;;;;;;5115349;27;20493;-77
2022/12/11 10:34:42;;;;;;;8.13;3.38;;;;;;;;;;5133674;27;20088;-80
2022/12/11 10:37:08;;;;;;;8.35;3.67;;;;;;;;;;5133652;27;20110;-78
2022/12/11 10:39:34;;;;;;;8.23;3.67;;;;;;;;;;5114898;27;20517;-80
2022/12/11 10:42:03;;;;;;;7.05;3.83;;;;;;;;;;5133332;27;20023;-80
2022/12/11 10:44:30;;;;;;;12.43;4.38;;;;;;;;;;5133446;27;20023;-78
2022/12/11 10:47:15;;;;;;;8.25;5.03;;;;;;;;;;5114816;27;20481;-79
2022/12/11 10:50:01;;;;;;;9.10;5.93;;;;;;;;;;5133338;27;20068;-78
2022/12/11 10:52:31;;;;;;;12.55;6.43;;;;;;;;;;5133327;27;20055;-80
2022/12/11 10:55:15;;;;;;;18.08;8.77;;;;;;;;;;5133643;27;20027;-79
2022/12/11 10:57:42;;;;;;;16.25;8.35;;;;;;;;;;5133337;27;20023;-80
2022/12/11 11:00:26;;;;;;;13.02;8.05;;;;;;;;;;5132902;27;20529;-82
2022/12/11 11:02:52;;;;;;;18.53;7.87;;;;;;;;;;5114327;28;20152;-78
2022/12/11 11:05:37;;;;;;;13.88;6.65;;;;;;;;;;5133294;28;20286;-79
2022/12/11 11:10:30;;;;;;;18.27;8.95;;;;;;;;;;5133160;28;20060;-80
2022/12/11 11:13:00;;;;;;;13.15;7.30;;;;;;;;;;5133012;28;20031;-81
2022/12/11 11:15:27;;;;;;;14.25;7.60;;;;;;;;;;5132918;28;20103;-81
2022/12/11 11:17:57;;;;;;;15.73;9.57;;;;;;;;;;5133195;28;20054;-79
2022/12/11 11:20:25;;;;;;;22.95;14.93;;;;;;;;;;5133058;28;20035;-82
2022/12/11 11:22:53;;;;;;;29.08;16.70;;;;;;;;;;5133137;28;20393;-80
2022/12/11 11:25:23;;;;;;;14.02;8.40;;;;;;;;;;5132853;28;20035;-81
2022/12/11 11:27:52;;;;;;;12.63;7.35;;;;;;;;;;5133099;28;20465;-78
2022/12/11 11:30:20;;;;;;;14.23;10.52;;;;;;;;;;5133024;28;20020;-75
2022/12/11 11:32:46;;;;;;;18.02;12.25;;;;;;;;;;5133151;28;20358;-79
2022/12/11 11:35:12;;;;;;;20.63;17.48;;;;;;;;;;5133047;28;20023;-79
2022/12/11 11:37:39;;;;;;;78.70;57.70;;;;;;;;;;5132882;28;20039;-80
2022/12/11 11:40:11;;;;;;;28.58;21.83;;;;;;;;;;5132761;28;20098;-78
2022/12/11 11:42:49;;;;;;;35.05;25.20;;;;;;;;;;5132724;28;20108;-80
2022/12/11 11:45:15;;;;;;;17.00;11.13;;;;;;;;;;5132327;28;20035;-79
2022/12/11 11:47:46;;;;;;;10.38;7.22;;;;;;;;;;5132912;28;20027;-79
2022/12/11 11:50:20;;;;;;;5.68;2.70;;;;;;;;;;5133161;27;20027;-78
2022/12/11 11:52:51;;;;;;;9.00;3.00;;;;;;;;;;5136669;27;20430;-81
2022/12/11 11:55:35;;;;;;;6.57;2.45;;;;;;;;;;5136416;27;20031;-80
2022/12/11 11:58:01;;;;;;;;;;;;;;;;;;5136952;27;20469;-79
2022/12/11 12:00:28;;;;;;;5.07;3.38;;;;;;;;;;5136536;27;19956;-77
2022/12/11 12:02:57;;;;;;;4.05;2.35;;;;;;;;;;5136257;27;20147;-79
2022/12/11 12:05:26;;;;;;;4.80;2.58;;;;;;;;;;5136337;27;20035;-77
2022/12/11 12:08:01;;;;;;;3.67;2.40;;;;;;;;;;5135724;27;20031;-76
2022/12/11 12:10:31;;;;;;;3.47;2.15;;;;;;;;;;5136169;27;20106;-78
2022/12/11 12:13:16;;;;;;;7.90;4.82;;;;;;;;;;5136241;27;20172;-77
2022/12/11 12:15:42;;;;;;;;;;;;;;;;;;5136527;27;20055;-78
2022/12/11 12:18:27;;;;;;;4.57;3.05;;;;;;;;;;5136277;27;19910;-79
2022/12/11 12:21:08;;;;;;;2.42;1.65;;;;;;;;;;5135965;27;20435;-78
2022/12/11 12:23:43;;;;;;;6.57;3.10;;;;;;;;;;5135917;27;20458;-80
2022/12/11 12:26:18;;;;;;;5.45;2.58;;;;;;;;;;5136083;27;20429;-80
2022/12/11 12:28:44;;;;;;;2.15;1.10;;;;;;;;;;5135814;27;20106;-79
2022/12/11 12:31:29;;;;;;;0.77;0.47;;;;;;;;;;5136006;27;20023;-80
2022/12/11 12:34:13;;;;;;;0.70;0.40;;;;;;;;;;5135967;27;20046;-78
2022/12/11 12:36:48;;;;;;;2.08;0.47;;;;;;;;;;5135943;27;20030;-80
2022/12/11 12:39:20;;;;;;;0.80;0.30;;;;;;;;;;5117394;27;20425;-78
2022/12/11 12:42:05;;;;;;;0.88;0.40;;;;;;;;;;5135942;27;20099;-79
2022/12/11 12:44:31;;;;;;;;;;;;;;;;;;5136386;27;20032;-79
2022/12/11 12:46:59;;;;;;;1.08;0.77;;;;;;;;;;5135561;27;19990;-79
2022/12/11 12:49:34;;;;;;;0.95;0.60;;;;;;;;;;5135757;27;20370;-79
2022/12/11 12:52:01;;;;;;;3.38;1.10;;;;;;;;;;5135470;27;20031;-80
2022/12/11 12:54:28;;;;;;;4.22;1.60;;;;;;;;;;5117266;27;20033;-77
2022/12/11 12:56:55;;;;;;;2.28;1.10;;;;;;;;;;5135565;27;20088;-78
2022/12/11 12:59:22;;;;;;;4.07;2.45;;;;;;;;;;5135658;27;20098;-79
2022/12/11 13:01:54;;;;;;;5.40;4.05;;;;;;;;;;5135138;27;20031;-78
2022/12/11 13:04:28;;;;;;;8.05;5.40;;;;;;;;;;5134438;27;20083;-77
2022/12/11 13:06:55;;;;;;;3.40;2.13;;;;;;;;;;5134841;27;20069;-77
2022/12/11 13:09:22;;;;;;;5.57;3.42;;;;;;;;;;5134681;27;20772;-79
2022/12/11 13:11:52;;;;;;;2.63;2.25;;;;;;;;;;5134194;27;20105;-79
2022/12/11 13:14:19;;;;;;;1.52;0.90;;;;;;;;;;5134299;27;20059;-78
2022/12/11 13:16:47;;;;;;;1.40;0.60;;;;;;;;;;5135100;27;20035;-76
2022/12/11 13:19:33;;;;;;;1.75;0.70;;;;;;;;;;5134891;27;20023;-78
2022/12/11 13:21:59;;;;;;;1.67;1.25;;;;;;;;;;5135151;27;20113;-79
2022/12/11 13:24:26;;;;;;;3.53;2.30;;;;;;;;;;5134836;27;20043;-77
2022/12/11 13:26:53;;;;;;;3.05;2.20;;;;;;;;;;5116551;27;20023;-78
2022/12/11 13:29:37;;;;;;;3.60;3.00;;;;;;;;;;5134589;27;20102;-77
2022/12/11 13:32:22;;;;;;;5.28;2.67;;;;;;;;;;5134597;27;20023;-78
2022/12/11 13:35:07;;;;;;;2.25;1.60;;;;;;;;;;5134287;27;20019;-77
2022/12/11 13:37:33;;;;;;;;;;;;;;;;;;5134951;27;20023;-78
2022/12/11 13:40:00;;;;;;;8.75;6.10;;;;;;;;;;5134748;27;19998;-77
2022/12/11 13:42:31;;;;;;;11.38;7.35;;;;;;;;;;5134425;27;20469;-76
2022/12/11 13:44:58;;;;;;;14.48;10.50;;;;;;;;;;5133917;27;20027;-79
2022/12/11 13:47:25;;;;;;;12.80;10.00;;;;;;;;;;5115628;27;20031;-78
2022/12/11 13:50:00;;;;;;;12.40;7.68;;;;;;;;;;5115341;27;20122;-78
2022/12/11 13:52:27;;;;;;;7.88;5.80;;;;;;;;;;5112794;27;20027;-77
2022/12/11 13:54:54;;;;;;;9.00;6.05;;;;;;;;;;5134255;27;20027;-81
2022/12/11 13:57:27;;;;;;;93.47;45.70;;;;;;;;;;5134439;27;20458;-79
2022/12/11 13:59:58;;;;;;;146.30;80.47;;;;;;;;;;5134537;27;20080;-78
2022/12/11 14:02:27;;;;;;;64.55;42.80;;;;;;;;;;5134588;27;20038;-81
2022/12/11 14:04:55;;;;;;;35.53;24.13;;;;;;;;;;5133419;27;20377;-78
2022/12/11 14:07:40;;;;;;;12.02;9.23;;;;;;;;;;5133726;27;20027;-82
2022/12/11 14:10:08;;;;;;;9.68;8.35;;;;;;;;;;5133978;27;20023;-80
2022/12/11 14:12:35;;;;;;;7.57;6.07;;;;;;;;;;5134022;27;20031;-81
2022/12/11 14:15:03;;;;;;;10.75;7.70;;;;;;;;;;5133319;27;20470;-78
2022/12/11 14:17:33;;;;;;;17.88;13.70;;;;;;;;;;5133966;27;20027;-81
2022/12/11 14:20:01;;;;;;;20.45;15.80;;;;;;;;;;5133660;27;20076;-79
2022/12/11 14:22:28;;;;;;;15.70;12.00;;;;;;;;;;5133988;27;20384;-78
2022/12/11 14:24:56;;;;;;;9.80;7.60;;;;;;;;;;5133792;27;20033;-76
2022/12/11 14:27:23;;;;;;;11.50;8.98;;;;;;;;;;5133785;27;20037;-79
2022/12/11 14:29:49;;;;;;;13.45;8.82;;;;;;;;;;5133648;27;20038;-77
2022/12/11 14:32:26;;;;;;;12.57;7.95;;;;;;;;;;5133585;27;20079;-79
2022/12/11 14:34:52;;;;;;;11.55;8.57;;;;;;;;;;5133571;27;20034;-80
2022/12/11 14:37:20;;;;;;;10.70;8.00;;;;;;;;;;5133425;27;20031;-78
2022/12/11 14:39:46;;;;;;;7.75;4.75;;;;;;;;;;5133581;27;20019;-78
2022/12/11 14:42:28;;;;;;;13.57;9.35;;;;;;;;;;5133427;27;20504;-80
2022/12/11 14:44:57;;;;;;;10.77;8.88;;;;;;;;;;5133477;27;20437;-81
2022/12/11 14:47:25;;;;;;;15.25;13.02;;;;;;;;;;5133599;27;20457;-80
2022/12/11 14:50:02;;;;;;;11.70;10.05;;;;;;;;;;5133421;27;20488;-80
2022/12/11 14:52:39;;;;;;;6.80;5.03;;;;;;;;;;5133347;27;20481;-81
2022/12/11 14:55:08;;;;;;;6.60;4.43;;;;;;;;;;5133853;27;20031;-80
2022/12/11 14:57:34;;;;;;;3.80;2.05;;;;;;;;;;5133456;27;20053;-82
2022/12/11 15:00:01;;;;;;;4.25;2.85;;;;;;;;;;5133693;27;20030;-79
2022/12/11 15:02:29;;;;;;;4.20;3.17;;;;;;;;;;5133230;27;20026;-81
2022/12/11 15:05:05;;;;;;;5.25;4.20;;;;;;;;;;5114383;28;20058;-80
2022/12/11 15:07:31;;;;;;;5.88;3.67;;;;;;;;;;5132531;28;20019;-79
2022/12/11 15:09:57;;;;;;;3.65;2.20;;;;;;;;;;5132287;28;20023;-78
2022/12/11 15:12:23;;;;;;;6.10;4.38;;;;;;;;;;5132427;28;20034;-81
2022/12/11 15:14:52;;;;;;;5.63;3.83;;;;;;;;;;5114415;28;20051;-83